Weather History for KTSP - September, 2012

Change the Weather History Date:

Monday, September 10, 2012

  Actual Average Record
Temperature  
Mean Temperature 72 °F -  
Max Temperature 86 °F 81 °F 86 °F (2012)
Min Temperature 59 °F 52 °F 46 °F (2014)
Cooling Degree Days 8    
Growing Degree Days 22 (Base 50)    
Moisture  
Dew Point 46 °F    
Average Humidity 39    
Maximum Humidity 63    
Minimum Humidity 23    
Precipitation  
Precipitation 0.00 in - - ()
Sea Level Pressure  
Sea Level Pressure 30.04 in    
Wind  
Wind Speed 6 mph (WNW)    
Max Wind Speed 18 mph    
Max Gust Speed 24 mph    
Visibility 10 miles    
Events      
Averages and records for this station are not official NWS values.
T = Trace of Precipitation, MM = Missing Value Source: NWS Daily Summary

Daily Weather History Graph

Daily Weather History Graph

Search for Another Location

Airport or City:

Trip Planner

Search our weather history database for the weather conditions in past years. The results will help you decide how hot, cold, wet, or windy it might be!

Date:

Astronomy

Sep. 10, 2012 Rise Set
Actual Time 6:33 AM PDT 7:07 PM PDT
Civil Twilight 6:07 AM PDT 7:32 PM PDT
Nautical Twilight 5:37 AM PDT 8:02 PM PDT
Astronomical Twilight 5:07 AM PDT 8:33 PM PDT
Moon 1:08 AM PDT (9/10) 3:31 PM PDT (9/10)
Length of Visible Light 13h 24m
Length of Day
12h 33m
Waning Crescent, 29% of the Moon is Illuminated
Sep 10
Waning Crescent
Sep 15
New
Sep 22
First Quarter
Sep 29
Full
Oct 8
Last Quarter

Hourly Weather History & Observations

Time (PDT) Temp. Dew Point Humidity Pressure Visibility Wind Dir Wind Speed Gust Speed Precip Events Conditions
12:15 AM 66.2 °F 46.4 °F 49% 30.09 in 10.0 mi West 5.8 mph - N/A   Clear
12:35 AM 66.2 °F 46.4 °F 49% 30.08 in 10.0 mi Calm Calm - N/A   Clear
12:55 AM 66.2 °F 46.4 °F 49% 30.08 in 10.0 mi WSW 4.6 mph - N/A   Clear
1:15 AM 66.2 °F 46.4 °F 49% 30.08 in 10.0 mi West 8.1 mph - N/A   Clear
1:35 AM 66.2 °F 46.4 °F 49% 30.08 in 10.0 mi West 4.6 mph - N/A   Clear
1:55 AM 66.2 °F 46.4 °F 49% 30.08 in 10.0 mi West 4.6 mph - N/A   Mostly Cloudy
2:15 AM 66.2 °F 46.4 °F 49% 30.07 in 10.0 mi West 6.9 mph - N/A   Scattered Clouds
2:35 AM 64.4 °F 46.4 °F 52% 30.07 in 10.0 mi West 5.8 mph - N/A   Clear
2:55 AM 64.4 °F 44.6 °F 49% 30.07 in 10.0 mi NNW 3.5 mph - N/A   Clear
3:15 AM 64.4 °F 46.4 °F 52% 30.06 in 10.0 mi Calm Calm - N/A   Clear
3:35 AM 64.4 °F 46.4 °F 52% 30.06 in 10.0 mi Calm Calm - N/A   Clear
3:55 AM 62.6 °F 46.4 °F 55% 30.06 in 10.0 mi Calm Calm - N/A   Clear
4:15 AM 60.8 °F 46.4 °F 59% 30.06 in 10.0 mi Calm Calm - N/A   Clear
4:55 AM 60.8 °F 44.6 °F 55% 30.05 in 10.0 mi Calm Calm - N/A   Clear
5:15 AM 59.0 °F 46.4 °F 63% 30.05 in 10.0 mi Calm Calm - N/A   Clear
5:35 AM 59.0 °F 46.4 °F 63% 30.05 in 9.0 mi SE 3.5 mph - N/A   Clear
5:55 AM 59.0 °F 44.6 °F 59% 30.05 in 10.0 mi East 3.5 mph - N/A   Clear
6:15 AM 59.0 °F 46.4 °F 63% 30.05 in 10.0 mi Calm Calm - N/A   Clear
6:35 AM 59.0 °F 44.6 °F 59% 30.06 in 9.0 mi SE 4.6 mph - N/A   Partly Cloudy
6:55 AM 59.0 °F 46.4 °F 63% 30.06 in 8.0 mi Calm Calm - N/A   Mostly Cloudy
7:15 AM 62.6 °F 44.6 °F 52% 30.06 in 9.0 mi Calm Calm - N/A   Scattered Clouds
7:35 AM 64.4 °F 46.4 °F 52% 30.07 in 9.0 mi Calm Calm - N/A   Scattered Clouds
7:55 AM 68.0 °F 46.4 °F 46% 30.07 in 8.0 mi ESE 3.5 mph - N/A   Clear
8:15 AM 69.8 °F 46.4 °F 43% 30.07 in 10.0 mi Calm Calm - N/A   Clear
8:35 AM 71.6 °F 46.4 °F 41% 30.07 in 10.0 mi Calm Calm - N/A   Clear
8:55 AM 73.4 °F 46.4 °F 38% 30.07 in 9.0 mi SE 3.5 mph - N/A   Clear
9:15 AM 75.2 °F 46.4 °F 36% 30.07 in 10.0 mi Calm Calm - N/A   Clear
9:35 AM 77.0 °F 46.4 °F 34% 30.07 in 9.0 mi Calm Calm - N/A   Clear
9:55 AM 80.6 °F 46.4 °F 30% 30.07 in 9.0 mi NNW 4.6 mph - N/A   Clear
10:15 AM 82.4 °F 46.4 °F 28% 30.07 in 10.0 mi NW 6.9 mph - N/A   Clear
10:35 AM 84.2 °F 46.4 °F 27% 30.07 in 9.0 mi NW 9.2 mph - N/A   Clear
10:55 AM 84.2 °F 46.4 °F 27% 30.06 in 10.0 mi WNW 11.5 mph - N/A   Clear
11:15 AM 86.0 °F 48.2 °F 27% 30.06 in 10.0 mi NW 12.7 mph - N/A   Clear
11:35 AM 86.0 °F 48.2 °F 27% 30.06 in 10.0 mi NW 13.8 mph - N/A   Clear
11:55 AM 86.0 °F 46.4 °F 25% 30.06 in 10.0 mi NW 13.8 mph - N/A   Clear
12:15 PM 86.0 °F 46.4 °F 25% 30.06 in 9.0 mi NW 13.8 mph - N/A   Clear
12:35 PM 86.0 °F 46.4 °F 25% 30.05 in 9.0 mi NW 18.4 mph - N/A   Clear
12:55 PM 86.0 °F 46.4 °F 25% 30.05 in 10.0 mi NW 17.3 mph - N/A   Clear
1:15 PM 86.0 °F 46.4 °F 25% 30.04 in 9.0 mi NW 17.3 mph - N/A   Clear
1:35 PM 86.0 °F 46.4 °F 25% 30.04 in 10.0 mi NW 16.1 mph 21.9 mph N/A   Clear
1:55 PM 86.0 °F 44.6 °F 23% 30.03 in 10.0 mi NW 17.3 mph 21.9 mph N/A   Clear
2:15 PM 86.0 °F 44.6 °F 23% 30.02 in 10.0 mi NW 18.4 mph 24.2 mph N/A   Clear
2:55 PM 84.2 °F 44.6 °F 25% 30.01 in 10.0 mi NW 16.1 mph 23.0 mph N/A   Clear
3:15 PM 84.2 °F 44.6 °F 25% 30.01 in 10.0 mi NW 15.0 mph 20.7 mph N/A   Clear
3:35 PM 82.4 °F 44.6 °F 26% 30.01 in 10.0 mi NW 15.0 mph 21.9 mph N/A   Clear
3:55 PM 80.6 °F 44.6 °F 28% 30.01 in 10.0 mi NW 16.1 mph 20.7 mph N/A   Clear
4:15 PM 80.6 °F 44.6 °F 28% 30.01 in 10.0 mi NW 16.1 mph - N/A   Clear
4:35 PM 82.4 °F 44.6 °F 26% 30.00 in 10.0 mi NW 15.0 mph - N/A   Clear
4:55 PM 80.6 °F 44.6 °F 28% 30.00 in 10.0 mi NW 15.0 mph 20.7 mph N/A   Clear
5:15 PM 82.4 °F 44.6 °F 26% 30.00 in 10.0 mi NW 13.8 mph 21.9 mph N/A   Clear
5:35 PM 82.4 °F 42.8 °F 25% 30.00 in 10.0 mi NW 13.8 mph 19.6 mph N/A   Clear
5:55 PM 80.6 °F 42.8 °F 26% 29.99 in 10.0 mi NW 16.1 mph 21.9 mph N/A   Clear
6:15 PM 80.6 °F 42.8 °F 26% 29.99 in 10.0 mi NW 15.0 mph 24.2 mph N/A   Clear
6:55 PM 75.2 °F 42.8 °F 31% 30.00 in 10.0 mi NW 11.5 mph - N/A   Clear
7:15 PM 75.2 °F 44.6 °F 34% 30.01 in 9.0 mi WNW 11.5 mph - N/A   Clear
7:35 PM 73.4 °F 44.6 °F 36% 30.01 in 10.0 mi WNW 9.2 mph - N/A   Clear
7:55 PM 73.4 °F 44.6 °F 36% 30.01 in 10.0 mi WNW 10.4 mph - N/A   Clear
8:15 PM 71.6 °F 44.6 °F 38% 30.01 in 10.0 mi West 9.2 mph - N/A   Clear
8:35 PM 71.6 °F 44.6 °F 38% 30.02 in 10.0 mi West 9.2 mph - N/A   Clear
8:55 PM 69.8 °F 44.6 °F 40% 30.02 in 10.0 mi West 9.2 mph - N/A   Clear
9:15 PM 68.0 °F 44.6 °F 43% 30.03 in 10.0 mi West 8.1 mph - N/A   Clear
9:35 PM 68.0 °F 44.6 °F 43% 30.03 in 10.0 mi West 8.1 mph - N/A   Clear
9:55 PM 68.0 °F 44.6 °F 43% 30.04 in 10.0 mi West 8.1 mph - N/A   Clear
10:15 PM 68.0 °F 44.6 °F 43% 30.03 in 10.0 mi WNW 9.2 mph - N/A   Clear
10:35 PM 68.0 °F 46.4 °F 46% 30.03 in 10.0 mi West 8.1 mph - N/A   Clear
10:55 PM 68.0 °F 46.4 °F 46% 30.03 in 10.0 mi WNW 8.1 mph - N/A   Clear
11:15 PM 68.0 °F 44.6 °F 43% 30.03 in 10.0 mi West 10.4 mph - N/A   Clear
11:55 PM 68.0 °F 44.6 °F 43% 30.03 in 10.0 mi West 6.9 mph - N/A   Clear